Time;durP1;ratioP1;P1;durP2;ratioP2;P2;SDS_P1;SDS_P2;PMS_P1;PMS_P2;Temp;Humidity;BMP_temperature;BMP_pressure;BME280_temperature;BME280_humidity;BME280_pressure;Samples;Min_cycle;Max_cycle;Signal;HPM_P1;HPM_P2
2022/10/05 00:00:13;;;;;;;7.47;4.55;;;15.10;99.90;;;;;;5030330;28;20084;-57
2022/10/05 00:02:38;;;;;;;8.88;4.15;;;15.10;99.90;;;;;;5010506;28;20041;-65
2022/10/05 00:05:18;;;;;;;6.35;4.47;;;15.10;99.90;;;;;;5010626;28;20095;-61
2022/10/05 00:07:44;;;;;;;7.13;4.20;;;15.10;99.90;;;;;;5009320;28;20049;-60
2022/10/05 00:10:14;;;;;;;7.68;4.68;;;15.10;99.90;;;;;;5011064;28;20138;-60
2022/10/05 00:12:42;;;;;;;10.40;4.70;;;15.10;99.90;;;;;;5026639;28;20057;-56
2022/10/05 00:15:11;;;;;;;7.32;4.95;;;15.10;99.90;;;;;;5010410;28;20559;-60
2022/10/05 00:17:37;;;;;;;9.05;4.72;;;15.10;99.90;;;;;;5009870;28;20088;-58
2022/10/05 00:20:15;;;;;;;10.15;5.13;;;15.10;99.90;;;;;;5009410;28;20081;-63
2022/10/05 00:22:41;;;;;;;7.85;4.47;;;15.10;99.90;;;;;;5010044;28;20048;-57
2022/10/05 00:25:14;;;;;;;5.72;4.47;;;15.10;99.90;;;;;;5008483;28;20053;-59
2022/10/05 00:27:40;;;;;;;7.40;4.63;;;15.10;99.90;;;;;;5027708;28;20112;-54
2022/10/05 00:30:18;;;;;;;9.52;5.00;;;15.10;99.90;;;;;;5009709;28;20041;-63
2022/10/05 00:32:44;;;;;;;6.78;4.47;;;15.10;99.90;;;;;;5026787;28;20049;-57
2022/10/05 00:35:11;;;;;;;6.45;4.32;;;15.00;99.90;;;;;;5010410;28;20112;-60
2022/10/05 00:37:37;;;;;;;6.55;3.80;;;15.00;99.90;;;;;;5007845;28;20515;-58
2022/10/05 00:40:19;;;;;;;9.75;4.43;;;15.00;99.90;;;;;;5010072;28;20124;-54
2022/10/05 00:43:10;;;;;;;12.00;4.80;;;15.00;99.90;;;;;;4999488;28;20757;-65
2022/10/05 00:45:54;;;;;;;10.68;4.50;;;15.00;99.90;;;;;;5026900;28;20041;-60
2022/10/05 00:48:31;;;;;;;6.22;3.80;;;15.00;99.90;;;;;;5027488;28;20053;-64
2022/10/05 00:51:13;;;;;;;6.70;3.72;;;15.00;99.90;;;;;;5026518;28;20055;-61
2022/10/05 00:54:05;;;;;;;11.30;4.22;;;15.00;99.90;;;;;;4993274;28;20052;-63
2022/10/05 00:56:45;;;;;;;6.75;4.15;;;15.00;99.90;;;;;;4953532;28;20065;-65
2022/10/05 00:59:23;;;;;;;10.27;4.47;;;15.00;99.90;;;;;;5008548;28;20072;-56
2022/10/05 01:01:52;;;;;;;9.00;3.58;;;15.00;99.90;;;;;;5009538;28;20053;-57
2022/10/05 01:04:36;;;;;;;6.82;3.88;;;15.00;99.90;;;;;;4995336;28;20136;-61
2022/10/05 01:07:02;;;;;;;7.85;4.15;;;15.00;99.90;;;;;;5009239;28;20049;-63
2022/10/05 01:10:03;;;;;;;8.70;3.90;;;15.00;99.90;;;;;;5026596;28;20060;-67
2022/10/05 01:12:45;;;;;;;8.27;3.58;;;15.00;99.90;;;;;;4925242;28;20062;-56
2022/10/05 01:15:31;;;;;;;5.00;3.45;;;15.00;99.90;;;;;;5008726;28;20049;-68
2022/10/05 01:18:45;;;;;;;6.30;3.63;;;15.00;99.90;;;;;;5008962;28;20045;-54
2022/10/05 01:21:18;;;;;;;7.72;3.17;;;15.00;99.90;;;;;;4935669;28;20910;-60
2022/10/05 01:24:26;;;;;;;4.50;3.20;;;15.00;99.90;;;;;;5008953;28;20061;-55
2022/10/05 01:27:09;;;;;;;5.53;3.10;;;15.00;99.90;;;;;;5006028;28;20086;-61
2022/10/05 01:29:48;;;;;;;5.20;2.78;;;15.00;99.90;;;;;;5007388;28;20041;-64
2022/10/05 01:32:33;;;;;;;5.45;2.83;;;15.00;99.90;;;;;;5018119;28;20428;-58
2022/10/05 01:35:18;;;;;;;4.38;2.90;;;15.00;99.90;;;;;;5008164;28;20077;-58
2022/10/05 01:37:56;;;;;;;6.93;2.80;;;15.00;99.90;;;;;;5007827;28;20128;-62
2022/10/05 01:40:33;;;;;;;9.95;3.17;;;15.00;99.90;;;;;;5009932;28;20521;-55
2022/10/05 01:43:02;;;;;;;10.07;3.22;;;15.00;99.90;;;;;;5007536;28;20059;-58
2022/10/05 01:45:53;;;;;;;5.18;2.80;;;15.00;99.90;;;;;;5009528;28;20440;-59
2022/10/05 01:48:25;;;;;;;4.00;2.95;;;15.00;99.90;;;;;;5008839;28;20045;-64
2022/10/05 01:51:09;;;;;;;5.97;2.88;;;15.00;99.90;;;;;;5007422;28;20737;-65
2022/10/05 01:53:56;;;;;;;6.07;2.55;;;15.00;99.90;;;;;;5008722;28;20124;-66
2022/10/05 01:56:26;;;;;;;3.55;2.95;;;15.00;99.90;;;;;;5025635;28;20388;-57
2022/10/05 01:59:37;;;;;;;4.35;2.88;;;15.00;99.90;;;;;;5011693;28;20052;-56
2022/10/05 02:02:08;;;;;;;5.13;2.50;;;15.00;99.90;;;;;;5022413;28;20135;-66
2022/10/05 02:05:29;;;;;;;5.40;3.08;;;15.00;99.90;;;;;;5007125;28;20049;-57
2022/10/05 02:08:14;;;;;;;3.17;2.78;;;15.00;99.90;;;;;;4996596;28;20065;-61
2022/10/05 02:10:58;;;;;;;4.85;2.75;;;15.00;99.90;;;;;;5008249;28;20488;-65
2022/10/05 02:13:29;;;;;;;10.35;3.15;;;15.00;99.90;;;;;;5007576;28;20049;-56
2022/10/05 02:16:04;;;;;;;4.63;2.97;;;15.00;99.90;;;;;;5025742;28;20134;-64
2022/10/05 02:18:37;;;;;;;8.18;3.40;;;15.00;99.90;;;;;;4998207;28;20049;-53
2022/10/05 02:21:04;;;;;;;8.27;3.17;;;15.00;99.90;;;;;;5007273;28;20635;-61
2022/10/05 02:23:33;;;;;;;5.05;2.95;;;15.00;99.90;;;;;;5026585;28;20049;-60
2022/10/05 02:26:00;;;;;;;5.20;3.20;;;15.00;99.90;;;;;;5026600;28;20046;-63
2022/10/05 02:28:33;;;;;;;7.18;2.80;;;15.00;99.90;;;;;;5011652;28;20432;-56
2022/10/05 02:31:12;;;;;;;3.53;2.83;;;14.90;99.90;;;;;;5028395;28;20053;-64
2022/10/05 02:33:39;;;;;;;6.85;2.90;;;14.90;99.90;;;;;;5028901;28;20056;-60
2022/10/05 02:36:26;;;;;;;5.78;3.42;;;14.90;99.90;;;;;;5028920;28;20045;-58
2022/10/05 02:39:01;;;;;;;6.97;3.30;;;15.00;99.90;;;;;;5008296;28;20060;-56
2022/10/05 02:41:48;;;;;;;5.38;3.17;;;15.00;99.90;;;;;;5010515;28;20060;-62
2022/10/05 02:44:13;;;;;;;5.40;3.10;;;14.90;99.90;;;;;;5028504;28;20045;-56
2022/10/05 02:46:42;;;;;;;6.22;3.40;;;14.90;99.90;;;;;;5011336;28;20079;-58
2022/10/05 02:49:36;;;;;;;3.85;3.00;;;14.90;99.90;;;;;;5003854;28;20077;-61
2022/10/05 02:52:12;;;;;;;4.57;3.47;;;14.90;99.90;;;;;;5010458;28;20049;-65
2022/10/05 02:54:50;;;;;;;6.43;3.60;;;14.90;99.90;;;;;;5009966;28;20076;-68
2022/10/05 02:57:27;;;;;;;5.95;3.45;;;14.90;99.90;;;;;;5011388;28;20049;-59
2022/10/05 03:00:14;;;;;;;4.82;3.80;;;14.90;99.90;;;;;;5010752;28;20041;-60
2022/10/05 03:03:01;;;;;;;5.88;3.25;;;14.90;99.90;;;;;;5025074;28;20056;-63
2022/10/05 03:05:51;;;;;;;6.40;3.80;;;14.90;99.90;;;;;;5010439;28;20492;-65
2022/10/05 03:08:45;;;;;;;7.53;3.45;;;14.80;99.90;;;;;;5011345;28;20049;-61
2022/10/05 03:11:17;;;;;;;5.22;3.65;;;14.80;99.90;;;;;;5029193;28;20464;-62
2022/10/05 03:14:17;;;;;;;4.88;3.45;;;14.80;99.90;;;;;;5010440;28;20057;-62
2022/10/05 03:16:42;;;;;;;6.00;3.90;;;14.80;99.90;;;;;;5002796;28;20446;-64
2022/10/05 03:19:35;;;;;;;6.60;3.40;;;14.80;99.90;;;;;;5011390;28;20095;-53
2022/10/05 03:22:16;;;;;;;9.30;3.50;;;14.90;99.90;;;;;;5010212;28;20123;-63
2022/10/05 03:24:57;;;;;;;7.75;3.88;;;14.80;99.90;;;;;;5011090;28;20137;-66
2022/10/05 03:27:37;;;;;;;6.15;3.80;;;14.80;99.90;;;;;;5011195;28;20073;-59
2022/10/05 03:30:20;;;;;;;5.35;3.70;;;14.80;99.90;;;;;;5010584;28;20426;-57
2022/10/05 03:33:01;;;;;;;4.45;3.47;;;14.80;99.90;;;;;;5010866;28;20057;-59
2022/10/05 03:35:29;;;;;;;7.22;3.50;;;14.80;99.90;;;;;;5010353;28;20061;-59
2022/10/05 03:38:17;;;;;;;4.63;3.40;;;14.80;99.90;;;;;;5027213;28;20450;-66
2022/10/05 03:41:15;;;;;;;9.40;4.40;;;14.80;99.90;;;;;;5010685;28;20060;-60
2022/10/05 03:43:53;;;;;;;9.57;4.00;;;14.80;99.90;;;;;;4997882;28;20041;-63
2022/10/05 03:46:48;;;;;;;7.85;3.85;;;14.80;99.90;;;;;;5028755;28;20136;-60
2022/10/05 03:49:51;;;;;;;4.93;3.55;;;14.80;99.90;;;;;;5009613;28;20128;-58
2022/10/05 03:52:23;;;;;;;4.63;3.78;;;14.80;99.90;;;;;;4997762;28;20045;-61
2022/10/05 03:54:56;;;;;;;8.85;4.43;;;14.80;99.90;;;;;;5010858;28;20053;-62
2022/10/05 03:57:27;;;;;;;7.32;3.80;;;14.80;99.90;;;;;;5009817;28;20052;-56
2022/10/05 04:00:22;;;;;;;9.07;3.75;;;14.80;99.90;;;;;;5010213;28;20404;-59
2022/10/05 04:02:56;;;;;;;5.75;3.88;;;14.80;99.90;;;;;;5010727;28;20053;-57
2022/10/05 04:05:29;;;;;;;11.20;4.47;;;14.80;99.90;;;;;;5027007;28;20041;-59
2022/10/05 04:07:55;;;;;;;7.50;3.88;;;14.80;99.90;;;;;;5018143;28;20055;-65
2022/10/05 04:10:34;;;;;;;6.93;4.22;;;14.80;99.90;;;;;;5027357;28;20041;-67
2022/10/05 04:13:30;;;;;;;7.30;4.00;;;14.80;99.90;;;;;;5013298;28;20042;-57
2022/10/05 04:16:13;;;;;;;5.53;4.32;;;14.80;99.90;;;;;;5027349;28;20104;-63
2022/10/05 04:18:44;;;;;;;11.18;4.35;;;14.80;99.90;;;;;;5009606;28;20060;-64
2022/10/05 04:21:36;;;;;;;6.55;4.18;;;14.80;99.90;;;;;;5009983;28;20046;-60
2022/10/05 04:24:28;;;;;;;7.13;3.70;;;14.80;99.90;;;;;;5009986;28;20120;-65
2022/10/05 04:26:59;;;;;;;5.57;3.70;;;14.80;99.90;;;;;;5008502;28;20639;-65
2022/10/05 04:29:49;;;;;;;6.60;4.03;;;14.80;99.90;;;;;;5010420;28;20050;-59
2022/10/05 04:32:14;;;;;;;10.98;4.10;;;14.80;99.90;;;;;;5009460;28;20115;-68
2022/10/05 04:35:05;;;;;;;5.63;3.85;;;14.80;99.90;;;;;;5009896;28;20037;-57
2022/10/05 04:37:51;;;;;;;8.30;3.72;;;14.80;99.90;;;;;;5010247;28;20053;-66
2022/10/05 04:40:32;;;;;;;7.90;4.10;;;14.80;99.90;;;;;;4980159;28;20073;-60
2022/10/05 04:43:08;;;;;;;8.27;3.95;;;14.80;99.90;;;;;;5009755;28;20535;-57
2022/10/05 04:45:48;;;;;;;5.55;4.00;;;14.70;99.90;;;;;;5010370;28;20455;-57
2022/10/05 04:48:43;;;;;;;6.22;3.70;;;14.80;99.90;;;;;;5008707;28;20096;-62
2022/10/05 04:51:19;;;;;;;6.50;4.18;;;14.70;99.90;;;;;;5009651;28;20453;-61
2022/10/05 04:54:02;;;;;;;10.27;3.88;;;14.80;99.90;;;;;;5026420;28;20029;-57
2022/10/05 04:57:10;;;;;;;9.73;4.82;;;14.70;99.90;;;;;;5003643;28;20107;-60
2022/10/05 04:59:57;;;;;;;5.40;3.83;;;14.80;99.90;;;;;;4912184;29;20056;-58
2022/10/05 05:02:50;;;;;;;5.70;4.10;;;14.80;99.90;;;;;;4910736;29;20056;-59
2022/10/05 05:05:26;;;;;;;9.45;3.40;;;14.80;99.90;;;;;;4982958;28;20172;-63
2022/10/05 05:08:16;;;;;;;4.40;4.00;;;14.80;99.90;;;;;;5009428;28;20049;-58
2022/10/05 05:10:56;;;;;;;5.47;3.30;;;14.80;99.90;;;;;;5008263;28;20083;-57
2022/10/05 05:13:22;;;;;;;7.50;4.20;;;14.70;99.90;;;;;;5009592;28;20408;-66
2022/10/05 05:16:15;;;;;;;8.70;4.10;;;14.70;99.90;;;;;;5008886;28;20041;-54
2022/10/05 05:18:57;;;;;;;6.82;4.00;;;14.70;99.90;;;;;;5008109;28;20048;-55
2022/10/05 05:21:26;;;;;;;8.85;3.90;;;14.70;99.90;;;;;;5027105;28;20041;-60
2022/10/05 05:23:58;;;;;;;7.60;3.92;;;14.70;99.90;;;;;;5017965;28;20060;-57
2022/10/05 05:26:41;;;;;;;5.07;3.80;;;14.70;99.90;;;;;;5009611;28;20053;-60
2022/10/05 05:29:43;;;;;;;6.72;3.90;;;14.70;99.90;;;;;;5009233;28;20048;-63
2022/10/05 05:32:25;;;;;;;7.55;3.63;;;14.70;99.90;;;;;;4994842;28;20081;-62
2022/10/05 05:35:19;;;;;;;6.60;3.95;;;14.70;99.90;;;;;;5007786;28;20046;-57
2022/10/05 05:37:45;;;;;;;5.55;3.80;;;14.70;99.90;;;;;;4993104;28;20435;-57
2022/10/05 05:40:22;;;;;;;8.93;3.40;;;14.70;99.90;;;;;;5007505;28;20453;-65
2022/10/05 05:43:01;;;;;;;5.47;3.95;;;14.70;99.90;;;;;;5003971;28;20050;-61
2022/10/05 05:45:37;;;;;;;4.38;3.65;;;14.70;99.90;;;;;;5011819;28;20056;-61
2022/10/05 05:48:16;;;;;;;7.85;3.55;;;14.70;99.90;;;;;;5008366;28;20057;-64
2022/10/05 05:51:00;;;;;;;6.57;4.07;;;14.70;99.90;;;;;;5006099;28;20051;-62
2022/10/05 05:53:42;;;;;;;7.18;4.20;;;14.70;99.90;;;;;;5005932;28;20049;-60
2022/10/05 05:56:18;;;;;;;5.05;3.72;;;14.70;99.90;;;;;;5008939;28;20524;-63
2022/10/05 05:59:09;;;;;;;7.18;4.15;;;14.70;99.90;;;;;;5007713;28;20084;-59
2022/10/05 06:01:39;;;;;;;4.80;4.18;;;14.70;99.90;;;;;;5024990;28;20045;-59
2022/10/05 06:04:14;;;;;;;6.88;3.90;;;14.70;99.90;;;;;;5007994;28;20472;-57
2022/10/05 06:06:46;;;;;;;10.45;4.10;;;14.70;99.90;;;;;;5007383;28;20053;-57
2022/10/05 06:09:36;;;;;;;6.85;3.85;;;14.70;99.90;;;;;;5006989;28;20136;-62
2022/10/05 06:12:03;;;;;;;;;;;14.70;99.90;;;;;;5008476;28;20045;-54
2022/10/05 06:14:34;;;;;;;5.05;4.25;;;14.60;99.90;;;;;;5007870;28;19977;-61
2022/10/05 06:17:08;;;;;;;7.22;3.80;;;14.70;99.90;;;;;;5005969;28;20400;-57
2022/10/05 06:19:38;;;;;;;7.25;3.90;;;14.60;99.90;;;;;;5006955;28;20056;-62
2022/10/05 06:22:16;;;;;;;7.30;4.28;;;14.60;99.90;;;;;;5025448;28;20045;-57
2022/10/05 06:25:05;;;;;;;7.85;4.97;;;14.60;99.90;;;;;;5004910;28;20424;-62
2022/10/05 06:27:35;;;;;;;;;;;14.60;99.90;;;;;;5007678;28;20054;-62
2022/10/05 06:30:05;;;;;;;9.30;4.57;;;14.60;99.90;;;;;;5001770;28;20048;-56
2022/10/05 06:32:34;;;;;;;4.60;4.10;;;14.60;99.90;;;;;;4994471;28;20052;-63
2022/10/05 06:35:09;;;;;;;6.43;4.30;;;14.60;99.90;;;;;;4992625;28;20034;-59
2022/10/05 06:37:58;;;;;;;7.93;4.35;;;14.60;99.90;;;;;;4984984;28;20060;-57
2022/10/05 06:40:56;;;;;;;7.32;4.18;;;14.60;99.90;;;;;;4999815;28;20600;-59
2022/10/05 06:43:56;;;;;;;4.88;4.00;;;14.60;99.90;;;;;;4994888;28;20108;-68
2022/10/05 06:46:32;;;;;;;6.25;4.20;;;14.60;99.90;;;;;;4993651;28;20051;-61
2022/10/05 06:49:23;;;;;;;6.13;4.40;;;14.60;99.90;;;;;;4992259;28;20057;-66
2022/10/05 06:51:55;;;;;;;5.32;4.28;;;14.60;99.90;;;;;;4992077;28;20505;-58
2022/10/05 06:54:42;;;;;;;6.95;4.70;;;14.70;99.90;;;;;;4991773;28;20352;-57
2022/10/05 06:57:14;;;;;;;8.35;3.95;;;14.70;99.90;;;;;;5002468;28;20046;-60
2022/10/05 07:00:00;;;;;;;8.75;4.53;;;14.60;99.90;;;;;;4995611;28;20057;-55
2022/10/05 07:02:49;;;;;;;6.32;4.32;;;14.70;99.90;;;;;;5004231;28;20059;-63
2022/10/05 07:05:42;;;;;;;8.75;5.00;;;14.70;99.90;;;;;;5004659;28;20188;-59
2022/10/05 07:08:22;;;;;;;10.07;4.57;;;14.70;99.90;;;;;;5002738;28;20095;-61
2022/10/05 07:10:57;;;;;;;;;;;14.70;99.90;;;;;;5002868;28;20047;-60
2022/10/05 07:13:25;;;;;;;9.00;4.63;;;14.70;99.90;;;;;;5007643;28;20030;-60
2022/10/05 07:16:15;;;;;;;6.65;4.28;;;14.70;99.90;;;;;;5006046;28;20041;-67
2022/10/05 07:19:06;;;;;;;7.72;4.05;;;14.70;99.90;;;;;;5006143;28;20053;-65
2022/10/05 07:21:38;;;;;;;15.15;4.82;;;14.70;99.90;;;;;;5007470;28;20484;-64
2022/10/05 07:24:28;;;;;;;6.78;3.97;;;14.70;99.90;;;;;;5005163;28;20057;-65
2022/10/05 07:27:12;;;;;;;7.07;4.95;;;14.70;99.90;;;;;;5010517;28;20092;-64
2022/10/05 07:29:54;;;;;;;7.78;4.45;;;14.70;99.90;;;;;;5009265;28;20042;-55
2022/10/05 07:32:43;;;;;;;7.97;4.75;;;14.70;99.90;;;;;;5005714;28;20081;-69
2022/10/05 07:38:36;;;;;;;8.38;4.50;;;14.80;99.90;;;;;;5013273;28;20049;-64
2022/10/05 07:41:12;;;;;;;3.72;3.17;;;14.80;99.90;;;;;;5005458;28;20056;-64
2022/10/05 07:44:05;;;;;;;5.28;4.20;;;14.80;99.90;;;;;;5004059;28;20133;-63
2022/10/05 07:46:55;;;;;;;9.60;4.63;;;14.90;99.90;;;;;;5013038;28;20056;-59
2022/10/05 07:49:31;;;;;;;5.43;4.07;;;14.90;99.90;;;;;;5000209;28;20068;-64
2022/10/05 07:52:22;;;;;;;8.25;4.28;;;14.90;99.90;;;;;;4998378;28;20045;-64
2022/10/05 07:55:06;;;;;;;5.07;3.63;;;15.00;99.90;;;;;;5004013;28;20080;-62
2022/10/05 07:57:43;;;;;;;4.88;3.97;;;15.00;99.90;;;;;;4985601;28;20493;-61
2022/10/05 08:00:19;;;;;;;4.43;3.35;;;15.00;99.90;;;;;;4998937;28;20085;-64
2022/10/05 08:02:54;;;;;;;5.07;3.88;;;15.10;99.90;;;;;;5018006;28;20052;-60
2022/10/05 08:05:32;;;;;;;5.40;3.42;;;15.10;99.90;;;;;;4993011;28;20049;-64
2022/10/05 08:08:21;;;;;;;5.63;3.70;;;15.20;99.90;;;;;;5003162;28;20124;-60
2022/10/05 08:11:08;;;;;;;4.63;3.45;;;15.20;99.90;;;;;;4967595;28;20053;-58
2022/10/05 08:13:50;;;;;;;6.05;3.72;;;15.20;99.90;;;;;;5010466;28;20060;-61
2022/10/05 08:16:17;;;;;;;11.57;4.40;;;15.20;99.90;;;;;;5003353;28;20437;-57
2022/10/05 08:18:52;;;;;;;3.50;3.20;;;15.30;99.90;;;;;;5010791;28;20050;-59
2022/10/05 08:21:24;;;;;;;4.97;3.78;;;15.30;99.90;;;;;;4996189;28;20414;-64
2022/10/05 08:23:59;;;;;;;3.95;3.30;;;15.30;99.90;;;;;;5004776;28;20489;-59
2022/10/05 08:26:44;;;;;;;6.93;5.07;;;15.30;99.90;;;;;;4994326;28;20050;-57
2022/10/05 08:29:22;;;;;;;5.78;3.90;;;15.30;99.90;;;;;;4980087;28;20045;-59
2022/10/05 08:31:50;;;;;;;4.10;3.70;;;15.40;99.90;;;;;;4994288;28;20096;-59
2022/10/05 08:34:25;;;;;;;6.47;3.47;;;15.40;99.90;;;;;;4987054;28;20476;-64
2022/10/05 08:36:54;;;;;;;6.95;4.18;;;15.40;99.90;;;;;;5002641;28;20049;-65
2022/10/05 08:39:23;;;;;;;8.10;4.80;;;15.40;99.90;;;;;;4996409;28;20041;-61
2022/10/05 08:42:24;;;;;;;8.47;4.33;;;15.40;99.90;;;;;;5010570;28;20046;-61
2022/10/05 08:45:01;;;;;;;7.70;3.97;;;15.40;99.90;;;;;;5018996;28;20049;-61
2022/10/05 08:47:56;;;;;;;4.93;4.10;;;15.40;99.90;;;;;;5010467;28;20073;-61
2022/10/05 08:50:58;;;;;;;7.38;3.83;;;15.50;99.90;;;;;;4998581;28;20408;-59
2022/10/05 08:53:40;;;;;;;3.70;3.20;;;15.50;99.90;;;;;;4990350;28;20445;-62
2022/10/05 08:56:27;;;;;;;6.35;3.80;;;15.60;99.90;;;;;;5020827;28;20060;-65
2022/10/05 08:59:06;;;;;;;3.28;2.45;;;15.60;99.90;;;;;;5010473;28;20089;-59
2022/10/05 09:02:07;;;;;;;3.58;2.85;;;15.70;99.90;;;;;;4990790;28;20436;-59
2022/10/05 09:04:56;;;;;;;5.65;3.63;;;15.80;99.90;;;;;;4961725;28;20041;-60
2022/10/05 09:07:49;;;;;;;5.80;3.97;;;15.80;99.90;;;;;;5002362;28;20048;-61
2022/10/05 09:10:37;;;;;;;6.20;3.53;;;16.00;99.90;;;;;;5005413;28;20496;-65
2022/10/05 09:13:32;;;;;;;3.97;3.35;;;16.00;99.90;;;;;;4995997;28;20052;-56
2022/10/05 09:16:35;;;;;;;10.80;3.67;;;16.10;99.90;;;;;;5008685;28;20117;-58
2022/10/05 09:19:17;;;;;;;6.78;3.47;;;16.30;99.90;;;;;;5009546;28;20381;-58
2022/10/05 09:22:29;;;;;;;4.95;3.25;;;16.30;99.90;;;;;;5008461;28;20132;-63
2022/10/05 09:24:58;;;;;;;3.25;2.95;;;16.40;99.90;;;;;;5007969;28;20644;-62
2022/10/05 09:27:36;;;;;;;6.75;3.05;;;16.50;99.90;;;;;;5002622;28;20100;-63
2022/10/05 09:30:22;;;;;;;4.07;2.60;;;16.60;99.90;;;;;;4992080;28;20120;-59
2022/10/05 09:33:06;;;;;;;4.90;2.30;;;16.60;99.90;;;;;;5008918;28;20052;-63
2022/10/05 09:35:43;;;;;;;3.13;2.50;;;16.70;99.90;;;;;;5007712;28;20049;-58
2022/10/05 09:38:12;;;;;;;4.03;2.55;;;16.70;99.90;;;;;;5007877;28;20407;-66
2022/10/05 09:40:43;;;;;;;4.97;2.58;;;16.80;99.90;;;;;;5004466;28;20370;-62
2022/10/05 09:43:33;;;;;;;3.55;2.42;;;16.80;99.90;;;;;;5027801;28;20463;-65
2022/10/05 09:46:11;;;;;;;2.30;2.10;;;16.80;99.90;;;;;;5024907;28;20042;-65
2022/10/05 09:48:58;;;;;;;2.92;2.30;;;16.80;99.90;;;;;;5026619;28;20075;-58
2022/10/05 09:51:24;;;;;;;7.40;2.20;;;16.80;99.90;;;;;;5004463;28;20057;-58
2022/10/05 09:54:27;;;;;;;4.68;2.60;;;16.80;99.90;;;;;;5007867;28;20393;-59
2022/10/05 09:57:02;;;;;;;2.35;2.15;;;16.90;99.90;;;;;;5019848;28;20055;-58
2022/10/05 09:59:51;;;;;;;2.28;1.98;;;16.90;99.90;;;;;;5007618;28;20069;-61
2022/10/05 10:02:37;;;;;;;2.15;2.05;;;16.90;99.90;;;;;;5008744;28;20484;-59
2022/10/05 10:05:28;;;;;;;2.35;2.10;;;17.00;99.90;;;;;;5010794;28;20051;-61
2022/10/05 10:08:30;;;;;;;2.20;1.88;;;17.10;99.90;;;;;;4991590;28;20089;-64
2022/10/05 10:11:08;;;;;;;2.65;1.80;;;17.00;99.90;;;;;;4997629;28;20263;-65
2022/10/05 10:14:04;;;;;;;4.43;2.00;;;17.10;99.90;;;;;;4991315;28;20501;-62
2022/10/05 10:16:44;;;;;;;3.30;2.00;;;17.10;99.90;;;;;;5007702;28;20072;-61
2022/10/05 10:19:28;;;;;;;3.63;2.30;;;17.10;99.90;;;;;;5026123;28;20049;-58
2022/10/05 10:22:15;;;;;;;2.72;1.90;;;17.10;99.90;;;;;;5007308;28;20440;-61
2022/10/05 10:25:06;;;;;;;1.50;1.40;;;17.00;99.90;;;;;;5004926;28;20097;-64
2022/10/05 10:28:18;;;;;;;2.00;1.73;;;17.00;99.90;;;;;;5002150;28;20404;-64
2022/10/05 10:31:22;;;;;;;8.77;1.70;;;16.90;99.90;;;;;;4962166;28;20135;-65
2022/10/05 10:34:22;;;;;;;3.75;1.67;;;16.90;99.90;;;;;;4965172;28;20416;-62
2022/10/05 10:37:15;;;;;;;2.85;1.40;;;16.80;99.90;;;;;;4997119;28;20132;-66
2022/10/05 10:40:26;;;;;;;1.63;1.40;;;16.80;99.90;;;;;;5002921;28;20049;-58
2022/10/05 10:42:58;;;;;;;4.95;1.50;;;16.80;99.90;;;;;;4988758;28;20041;-67
2022/10/05 10:45:38;;;;;;;2.03;1.60;;;16.80;99.90;;;;;;5003935;28;20695;-58
2022/10/05 10:48:39;;;;;;;3.28;1.35;;;16.80;99.90;;;;;;5007570;28;20907;-58
2022/10/05 10:51:28;;;;;;;2.22;1.55;;;16.70;99.90;;;;;;5000060;28;20054;-58
2022/10/05 10:54:38;;;;;;;7.25;1.60;;;16.70;99.90;;;;;;4988511;28;20097;-63
2022/10/05 10:57:33;;;;;;;1.50;1.35;;;16.80;99.90;;;;;;5003723;28;20057;-69
2022/10/05 11:00:33;;;;;;;2.97;1.75;;;16.80;99.90;;;;;;5007634;28;20042;-65
2022/10/05 11:03:04;;;;;;;2.20;1.90;;;16.70;99.90;;;;;;4983388;28;20081;-68
2022/10/05 11:05:42;;;;;;;1.90;1.70;;;16.80;99.90;;;;;;4999171;28;20833;-60
2022/10/05 11:08:08;;;;;;;4.20;1.58;;;16.80;99.90;;;;;;5009717;28;20052;-60
2022/10/05 11:10:45;;;;;;;3.38;1.50;;;16.70;99.90;;;;;;4991066;28;20049;-66
2022/10/05 11:13:38;;;;;;;1.55;1.48;;;16.80;99.90;;;;;;5008827;28;20105;-55
2022/10/05 11:16:19;;;;;;;1.70;1.60;;;16.80;99.90;;;;;;5007398;28;20500;-64
2022/10/05 11:18:45;;;;;;;1.80;1.70;;;16.80;99.90;;;;;;4992097;28;20049;-57
2022/10/05 11:21:17;;;;;;;5.00;1.70;;;16.80;99.90;;;;;;5015175;28;20049;-59
2022/10/05 11:24:24;;;;;;;2.40;1.63;;;16.80;99.90;;;;;;4992218;28;20370;-61
2022/10/05 11:27:06;;;;;;;1.67;1.60;;;16.80;99.90;;;;;;4943868;28;20468;-60
2022/10/05 11:29:55;;;;;;;1.80;1.70;;;16.70;99.90;;;;;;5005352;28;20050;-61
2022/10/05 11:32:59;;;;;;;2.55;1.77;;;16.80;99.90;;;;;;5002881;28;20528;-57
2022/10/05 11:35:52;;;;;;;3.08;1.73;;;16.70;99.90;;;;;;5001105;28;20046;-58
2022/10/05 11:38:36;;;;;;;2.00;1.80;;;16.70;99.90;;;;;;4992796;28;20445;-58
2022/10/05 11:41:26;;;;;;;2.00;1.90;;;16.70;99.90;;;;;;5005311;28;20041;-68
2022/10/05 11:44:05;;;;;;;2.13;1.92;;;16.70;99.90;;;;;;5006352;28;20053;-60
2022/10/05 11:47:00;;;;;;;2.17;1.50;;;16.70;99.90;;;;;;5010447;28;20115;-67
2022/10/05 11:49:35;;;;;;;2.20;1.52;;;16.80;99.90;;;;;;4992006;28;20355;-56
2022/10/05 11:52:27;;;;;;;2.22;1.80;;;16.80;99.90;;;;;;5009929;28;20133;-59
2022/10/05 11:55:02;;;;;;;3.10;1.90;;;16.80;99.90;;;;;;5009281;28;20049;-58
2022/10/05 11:57:57;;;;;;;1.83;1.70;;;16.80;99.90;;;;;;4988249;28;20523;-64
2022/10/05 12:00:30;;;;;;;3.85;1.70;;;16.70;99.90;;;;;;4991579;28;20420;-63
2022/10/05 12:03:05;;;;;;;2.67;1.70;;;16.70;99.90;;;;;;5003083;28;20072;-63
2022/10/05 12:05:48;;;;;;;2.47;1.65;;;16.70;99.90;;;;;;4991644;28;20371;-58
2022/10/05 12:08:25;;;;;;;1.70;1.60;;;16.60;99.90;;;;;;4982694;28;20060;-61
2022/10/05 12:10:51;;;;;;;2.10;1.90;;;16.60;99.90;;;;;;5009468;28;20059;-63
2022/10/05 12:13:39;;;;;;;4.88;1.85;;;16.60;99.90;;;;;;5008288;28;20447;-62
2022/10/05 12:16:16;;;;;;;5.88;1.70;;;16.60;99.90;;;;;;5010229;28;20503;-64
2022/10/05 12:19:16;;;;;;;3.00;2.13;;;16.60;99.90;;;;;;5026671;28;20049;-60
2022/10/05 12:22:02;;;;;;;1.50;1.27;;;16.60;99.90;;;;;;4998142;28;20045;-59
2022/10/05 12:24:34;;;;;;;2.85;1.70;;;16.60;99.90;;;;;;5009628;28;20057;-61
2022/10/05 12:27:23;;;;;;;2.22;1.40;;;16.60;99.90;;;;;;5027121;28;20117;-59
2022/10/05 12:29:58;;;;;;;6.50;1.88;;;16.60;99.90;;;;;;4993567;28;20051;-57
2022/10/05 12:32:46;;;;;;;4.43;1.88;;;16.60;99.90;;;;;;5009324;28;20057;-64
2022/10/05 12:35:18;;;;;;;2.47;1.63;;;16.60;99.90;;;;;;5002836;28;20107;-67
2022/10/05 12:38:09;;;;;;;3.42;2.30;;;16.60;99.90;;;;;;5027394;28;20057;-67
2022/10/05 12:40:50;;;;;;;4.60;2.03;;;16.60;99.90;;;;;;5008969;28;20053;-62
2022/10/05 12:43:16;;;;;;;1.60;1.45;;;16.60;99.90;;;;;;5002179;28;20112;-60
2022/10/05 12:46:23;;;;;;;3.75;1.83;;;16.60;99.90;;;;;;5007159;28;20050;-64
2022/10/05 12:48:58;;;;;;;3.25;1.60;;;16.60;99.90;;;;;;5001230;28;20049;-62
2022/10/05 12:51:44;;;;;;;1.67;1.58;;;16.60;99.90;;;;;;5002954;28;20085;-65
2022/10/05 12:54:19;;;;;;;3.42;1.70;;;16.60;99.90;;;;;;4975245;28;20061;-58
2022/10/05 12:57:00;;;;;;;1.52;1.42;;;16.50;99.90;;;;;;5021410;28;20125;-60
2022/10/05 12:59:44;;;;;;;1.45;1.38;;;16.60;99.90;;;;;;5002414;28;20079;-60
2022/10/05 13:02:19;;;;;;;2.72;1.60;;;16.60;99.90;;;;;;5006274;28;20060;-58
2022/10/05 13:04:58;;;;;;;3.50;1.58;;;16.60;99.90;;;;;;5021918;28;20045;-63
2022/10/05 13:07:37;;;;;;;3.20;1.95;;;16.60;99.90;;;;;;5002971;28;20076;-66
2022/10/05 13:10:09;;;;;;;2.55;1.48;;;16.60;99.90;;;;;;5015446;28;20049;-60
2022/10/05 13:12:49;;;;;;;3.78;1.50;;;16.70;99.90;;;;;;5007554;28;20049;-62
2022/10/05 13:15:21;;;;;;;1.85;1.48;;;16.60;99.90;;;;;;5003989;28;20057;-60
2022/10/05 13:17:59;;;;;;;1.42;1.15;;;16.60;99.90;;;;;;5012979;28;20045;-65
2022/10/05 13:20:34;;;;;;;2.75;1.60;;;16.70;99.90;;;;;;5007039;28;20046;-58
2022/10/05 13:23:21;;;;;;;1.50;1.40;;;16.70;99.90;;;;;;5002273;28;20038;-63
2022/10/05 13:26:17;;;;;;;5.65;1.40;;;16.70;99.90;;;;;;4990984;28;20061;-63
2022/10/05 13:29:01;;;;;;;2.42;1.42;;;16.70;99.90;;;;;;5007155;28;20049;-59
2022/10/05 13:31:27;;;;;;;2.75;1.20;;;16.70;99.90;;;;;;5004745;28;20056;-63
2022/10/05 13:34:01;;;;;;;5.30;1.33;;;16.70;99.90;;;;;;5007374;28;20426;-59
2022/10/05 13:37:07;;;;;;;4.18;1.67;;;16.70;99.90;;;;;;5006924;28;20172;-63
2022/10/05 13:39:39;;;;;;;4.40;1.70;;;16.70;99.90;;;;;;5000805;28;20061;-61
2022/10/05 13:42:05;;;;;;;2.10;1.63;;;16.70;99.90;;;;;;5006264;28;20072;-60
2022/10/05 13:44:52;;;;;;;2.70;1.52;;;16.70;99.90;;;;;;4987705;28;20083;-67
2022/10/05 13:47:29;;;;;;;6.72;1.90;;;16.80;99.90;;;;;;5004602;28;20096;-61
2022/10/05 13:50:13;;;;;;;2.17;1.60;;;16.80;99.90;;;;;;5004694;28;20392;-58
2022/10/05 13:53:03;;;;;;;4.97;1.77;;;16.80;99.90;;;;;;4992847;28;20451;-66
2022/10/05 13:55:48;;;;;;;4.90;1.77;;;16.90;99.90;;;;;;4959824;28;20144;-59
2022/10/05 13:58:42;;;;;;;3.38;1.83;;;17.00;99.90;;;;;;5000609;28;20129;-64
2022/10/05 14:01:13;;;;;;;4.88;1.95;;;17.10;99.90;;;;;;4909586;28;20066;-67
2022/10/05 14:03:39;;;;;;;4.75;1.58;;;17.10;99.90;;;;;;4948659;28;20054;-59
2022/10/05 14:06:12;;;;;;;2.20;2.00;;;17.10;99.90;;;;;;4930235;28;20051;-57